Hlavní strana
METAR-TAF:

METAR-TAF

Letiště :

Machala, Ekvádor

zeměpisná šířka: 03-26-07S, zeměpisná délka: 079-58-40W, výška: 52 m

Aktuální stav počasí

Zpráva byla vytvořena před 8 hodinami a 6 minutami, v 02:00 UTC
Bezvětří
Teplota 24°C
Vlhkost vzduchu 94%
Tlak 1012 hPa
Viditelnost 10 km a více
Skoro jasno ve výšce 1300 ft
Zataženo ve výšce 3300 ft
slabé mrholení

METAR: SERO 060200Z 00000KT 9999 -DZ FEW013 OVC033 24/23 Q1012

Čas: 05:06 (10:06 UTC)


TAF: chybějící

Stav a předpovědi počasí z více než 4 000 letišť (zprávy METAR a TAF).

Červené a žluté tečky na mapě představují dostupné meteorologické stanice.

Když kurzor umístíte na tečku, zobrazí se název stanice.

Pak kliknutím zobrazíte stav a předpověď počasí.

Chcete-li změnit mapu, kliknutím na zelené tlačítko se znaménkem +mapu přiblížíte, kliknutím na zelené tlačítko se znaménkem – mapu oddálíte a kliknutím na zelené šipky přejdete na sousední mapy.


METAR-TAF: